WetterOnline ( https://www.wetteronline.de )

Wetter aktuell Bad Wilsnack

Aktuelles Wetter: Seehausen (23m)

6-stündlich | Neueste Meldungen
Ortszeit Temperatur Wetter
Fr, 25.09. 8:00 12.2° C wolkig
Fr, 25.09. 2:00 13.1° C bedeckt
Do, 24.09. 20:00 12.2° C wolkig
Do, 24.09. 14:00 20.1° C leicht bewölkt
Do, 24.09. 8:00 15.9° C bewölkt
Do, 24.09. 2:00 14.8° C wolkig
Mi, 23.09. 20:00 16.6° C wolkenlos
Mi, 23.09. 14:00 24.0° C bedeckt
Ortszeit Temperatur Wetter
Fr, 25.09. 11:30 13.9° C bedeckt
Fr, 25.09. 11:20 13.9° C bedeckt
Fr, 25.09. 11:10 13.9° C bedeckt
Fr, 25.09. 11:00 13.4° C bedeckt
Fr, 25.09. 10:50 13.4° C bedeckt
Fr, 25.09. 10:40 13.3° C Sprühregen
Fr, 25.09. 10:30 13.2° C bewölkt
Fr, 25.09. 10:00 12.9° C bedeckt
Ortszeit Relative Feuchte Sichtweite
Fr, 25.09. 8:00 98% 30 km
Fr, 25.09. 2:00 67% 50 km
Do, 24.09. 20:00 69% 55 km
Do, 24.09. 14:00 45% 40 km
Do, 24.09. 8:00 69% 45 km
Do, 24.09. 2:00 69% 35 km
Mi, 23.09. 20:00 62% 40 km
Mi, 23.09. 14:00 39% 28 km
Ortszeit Relative Feuchte Sichtweite
Fr, 25.09. 11:30 95% 25 km
Fr, 25.09. 11:20 95% -
Fr, 25.09. 11:10 96% -
Fr, 25.09. 11:00 97% 26 km
Fr, 25.09. 10:50 97% -
Fr, 25.09. 10:40 96% -
Fr, 25.09. 10:30 97% 20 km
Fr, 25.09. 10:00 97% 19 km
Ortszeit Niederschlagsmenge Niederschlagsart
Fr, 25.09. 8:00 21 l/m2 in 12 Std. Regen
Fr, 25.09. 2:00 0.0 l/m2 in 6 Std. -
Do, 24.09. 20:00 0.1 l/m2 in 12 Std. -
Do, 24.09. 14:00 0.1 l/m2 in 6 Std. Regen
Do, 24.09. 8:00 0.0 l/m2 in 12 Std. -
Do, 24.09. 2:00 0.0 l/m2 in 6 Std. -
Mi, 23.09. 20:00 0.0 l/m2 in 12 Std. -
Mi, 23.09. 14:00 0.0 l/m2 in 6 Std. -
Ortszeit Niederschlagsmenge Niederschlagsart
Fr, 25.09. 11:30 0.0 l/m2 in 1 Std. -
Fr, 25.09. 11:20 keine Meldung -
Fr, 25.09. 11:10 keine Meldung -
Fr, 25.09. 11:00 0.1 l/m2 in 1 Std. Sprühregen
Fr, 25.09. 10:50 keine Meldung -
Fr, 25.09. 10:40 keine Meldung -
Fr, 25.09. 10:30 0.0 l/m2 in 1 Std. -
Fr, 25.09. 10:00 0.0 l/m2 in 1 Std. -
Ortszeit Stärke Spitze Richtung
km/h Bft. km/h Grad Sektor
Fr, 25.09. 8:00 4 1 22 140° SO
Fr, 25.09. 2:00 7 2 11 110° O
Do, 24.09. 20:00 2 1 35 150° SO
Do, 24.09. 14:00 22 4 44 260° W
Do, 24.09. 8:00 13 3 24 170° S
Do, 24.09. 2:00 11 2 18 150° SO
Mi, 23.09. 20:00 4 1 29 160° S
Mi, 23.09. 14:00 11 2 22 270° W
Ortszeit Stärke Spitze Richtung
km/h Bft. km/h Grad Sektor
Fr, 25.09. 11:30 7 2 13 220° SW
Fr, 25.09. 11:20 7 2 - 220° SW
Fr, 25.09. 11:10 6 1 - 180° S
Fr, 25.09. 11:00 7 2 14 190° S
Fr, 25.09. 10:50 7 2 - 190° S
Fr, 25.09. 10:40 7 2 - 190° S
Fr, 25.09. 10:30 7 2 14 170° S
Fr, 25.09. 10:00 7 2 14 150° SO
Ortszeit Untergrenze Bedeckung Gattung
total tief tief mittel hoch
Fr, 25.09. 8:00 630 m 8/8 3/8 - - -
Fr, 25.09. 2:00 1500 m 8/8 8/8 - - -
Do, 24.09. 20:00 8700 m 8/8 0/8 - - -
Do, 24.09. 14:00 8100 m 4/8 0/8 - - -
Do, 24.09. 8:00 3000 m 7/8 7/8 - - -
Do, 24.09. 2:00 7200 m 8/8 0/8 - - -
Mi, 23.09. 20:00 - 0/8 0/8 - - -
Mi, 23.09. 14:00 4200 m 8/8 8/8 - - -
Ortszeit Bedeckungsgrad in Achtel und Wolkenuntergrenze
Fr, 25.09. 11:30 3(240m) 6(540m) 8(1020m)
Fr, 25.09. 11:20 3(240m) 6(540m) 8(1020m)
Fr, 25.09. 11:10 5(240m) 8(990m) 8(1500m)
Fr, 25.09. 11:00 8(180m)
Fr, 25.09. 10:50 8(180m)
Fr, 25.09. 10:40 7(150m)
Fr, 25.09. 10:30 7(120m)
Fr, 25.09. 10:00 7(90m) 8(990m) 8(4800m)
Ortszeit Luftdruck NN (hPa) Tendenz (hPa in 3 Std.)
Fr, 25.09. 8:00 997 - 2,1
Fr, 25.09. 2:00 1000 - 2,7
Do, 24.09. 20:00 1004 - 0,9
Do, 24.09. 14:00 1005 + 1,6
Do, 24.09. 8:00 1001 - 0,3
Do, 24.09. 2:00 1002 - 1,1
Mi, 23.09. 20:00 1004 - 0,4
Mi, 23.09. 14:00 1005 - 0,5
Ortszeit Luftdruck NN (hPa) Tendenz (hPa in 3 Std.)
Fr, 25.09. 11:30 997 - 0,1
Fr, 25.09. 11:20 997 keine Meldung
Fr, 25.09. 11:10 997 keine Meldung
Fr, 25.09. 11:00 997 0,0
Fr, 25.09. 10:50 997 keine Meldung
Fr, 25.09. 10:40 997 keine Meldung
Fr, 25.09. 10:30 997 - 0,1
Fr, 25.09. 10:00 996 - 0,6
Ortszeit Schneehöhe (cm)
Fr, 25.09. 8:00 -
Fr, 25.09. 2:00 -
Do, 24.09. 20:00 -
Do, 24.09. 14:00 -
Do, 24.09. 8:00 -
Do, 24.09. 2:00 -
Mi, 23.09. 20:00 -
Mi, 23.09. 14:00 -
Ortszeit Schneehöhe (cm)
Fr, 25.09. 11:30 -
Fr, 25.09. 11:20 -
Fr, 25.09. 11:10 -
Fr, 25.09. 11:00 -
Fr, 25.09. 10:50 -
Fr, 25.09. 10:40 -
Fr, 25.09. 10:30 -
Fr, 25.09. 10:00 -
Link zu dieser Seite / Seite empfehlen

Das Wetter in ...